Clayton, New Jersey
Current Conditions -  °F | °C
As of 2:54 AM on Tuesday 21 Oct 2014 (Local Time) from KPHL Reporting Station
Overcast Overcast  
Wind Chill: 55°   Ceiling: 19000
Heat Index: 55°   Visibility: 10mi
Dew Point: 46°   Wind: 3mph
Humidity: 72%   Direction: 160°SSE
Pressure: 29.92"   Gusts: NA
Location:  39.66°N, 75.09°W
Report Text: KPHL 210654Z 16003KT 10SM SCT120 BKN190 OVC240 13/08 A2992 RMK AO2 SLP132 T01280078
Loading
Personal Weather Stations






























Interactive Weather Map
Tropical Storm Tracking
New forecast layout! Learn more

10-Day Weather Forecast

Advertisements
Track Severe Weather on mobile